createdAt,value
2018-10-12T00:00:13.288Z,20.7
2018-10-12T00:01:03.593Z,20.7
2018-10-12T00:01:53.689Z,20.7
2018-10-12T00:02:43.761Z,20.7
2018-10-12T00:03:33.829Z,20.7
2018-10-12T00:04:23.884Z,20.8
2018-10-12T00:05:13.671Z,20.7
2018-10-12T00:06:04.256Z,20.8
2018-10-12T00:06:54.071Z,20.7
2018-10-12T00:25:11.118Z,20.7
2018-10-12T00:26:00.678Z,20.7
2018-10-12T00:26:50.450Z,20.7
2018-10-12T00:27:40.789Z,20.7
2018-10-12T00:28:30.855Z,20.7
2018-10-12T00:29:20.931Z,20.7
2018-10-12T00:30:10.972Z,20.8
2018-10-12T00:31:01.046Z,20.7
2018-10-12T00:31:51.105Z,20.8
2018-10-12T00:32:40.865Z,20.7
2018-10-12T00:33:31.248Z,20.7
2018-10-12T00:34:21.310Z,20.7
2018-10-12T00:35:11.610Z,20.7
2018-10-12T00:36:01.132Z,20.7
2018-10-12T00:36:51.182Z,20.7
2018-10-12T00:37:41.527Z,20.7
2018-10-12T00:38:31.595Z,20.7
2018-10-12T00:39:21.378Z,20.7
2018-10-12T00:40:11.703Z,20.7
2018-10-12T00:41:01.773Z,20.7
2018-10-12T00:41:51.882Z,20.7
2018-10-12T00:42:41.884Z,20.7
2018-10-12T00:43:31.674Z,20.7
2018-10-12T00:44:21.745Z,20.7
2018-10-12T00:45:12.055Z,20.7
2018-10-12T00:46:02.135Z,20.7
2018-10-12T00:46:51.932Z,20.7
2018-10-12T00:47:42.264Z,20.7
2018-10-12T00:48:32.313Z,20.7
2018-10-12T00:49:22.399Z,20.7
2018-10-12T00:50:12.464Z,20.7
2018-10-12T00:51:02.520Z,20.7
2018-10-12T00:51:52.571Z,20.7
2018-10-12T00:52:42.639Z,20.7
2018-10-12T00:53:32.424Z,20.7
2018-10-12T00:54:22.754Z,20.7
2018-10-12T00:55:12.842Z,20.7
2018-10-12T00:56:02.602Z,20.7
2018-10-12T00:56:52.657Z,20.7
2018-10-12T00:57:43.006Z,20.7
2018-10-12T00:58:32.784Z,20.7
2018-10-12T00:59:23.126Z,20.7
2018-10-12T01:00:13.201Z,20.7
2018-10-12T01:01:03.253Z,20.7
2018-10-12T01:01:53.043Z,20.7
2018-10-12T01:02:43.388Z,20.7
2018-10-12T01:03:33.444Z,20.7
2018-10-12T01:04:23.633Z,20.7
2018-10-12T01:05:13.566Z,20.7
2018-10-12T01:06:03.629Z,20.8
2018-10-12T01:06:53.686Z,20.7
2018-10-12T01:07:43.187Z,20.7
2018-10-12T01:08:33.813Z,20.7
2018-10-12T01:09:23.592Z,20.7
2018-10-12T01:10:13.954Z,20.7
2018-10-12T01:11:04.254Z,20.7
2018-10-12T01:11:53.776Z,20.7
2018-10-12T01:12:44.124Z,20.7
2018-10-12T01:13:34.192Z,20.7
2018-10-12T01:14:24.261Z,20.7
2018-10-12T01:15:14.305Z,20.7
2018-10-12T01:16:04.400Z,20.7
2018-10-12T01:16:54.427Z,20.7
2018-10-12T01:17:44.497Z,20.7
2018-10-12T01:18:34.557Z,20.7
2018-10-12T01:19:24.621Z,20.7
2018-10-12T01:20:14.671Z,20.6
2018-10-12T01:21:04.465Z,20.7
2018-10-12T01:21:54.800Z,20.7
2018-10-12T01:22:44.581Z,20.7
2018-10-12T01:23:34.635Z,20.7
2018-10-12T01:24:24.992Z,20.7
2018-10-12T01:25:14.773Z,20.6
2018-10-12T01:26:05.110Z,20.6
2018-10-12T01:26:55.174Z,20.7
2018-10-12T01:27:45.254Z,20.7
2018-10-12T01:28:34.742Z,20.7
2018-10-12T01:29:25.086Z,20.7
2018-10-12T01:30:15.433Z,20.7
2018-10-12T01:31:05.211Z,20.7
2018-10-12T01:31:55.560Z,20.7
2018-10-12T01:32:45.334Z,20.6
2018-10-12T01:33:35.391Z,20.6
2018-10-12T01:34:25.733Z,20.6
2018-10-12T01:35:15.789Z,20.7
2018-10-12T01:36:05.862Z,20.7
2018-10-12T01:36:55.914Z,20.7
2018-10-12T01:37:45.986Z,20.7
2018-10-12T01:38:36.035Z,20.7
2018-10-12T01:39:26.123Z,20.7
2018-10-12T01:40:15.888Z,20.7
2018-10-12T01:41:05.936Z,20.7
2018-10-12T01:41:56.283Z,20.7
2018-10-12T01:42:46.334Z,20.7
2018-10-12T01:43:36.403Z,20.6
2018-10-12T01:44:26.468Z,20.7
2018-10-12T01:45:16.568Z,20.7
2018-10-12T01:46:06.598Z,20.6
2018-10-12T01:46:56.368Z,20.7
2018-10-12T01:47:46.722Z,20.7
2018-10-12T01:48:36.512Z,20.7
2018-10-12T01:49:26.839Z,20.6
2018-10-12T01:50:16.935Z,20.7
2018-10-12T01:51:06.411Z,20.7
2018-10-12T01:51:57.043Z,20.7
2018-10-12T01:52:47.132Z,20.7
2018-10-12T01:53:37.140Z,20.7
2018-10-12T01:54:26.934Z,20.7
2018-10-12T01:55:17.278Z,20.7
2018-10-12T01:56:07.331Z,20.7
2018-10-12T01:56:57.415Z,20.7
2018-10-12T01:57:47.481Z,20.7
2018-10-12T01:58:37.521Z,20.7
2018-10-12T01:59:27.597Z,20.7
2018-10-12T02:00:17.645Z,20.7
2018-10-12T02:01:07.703Z,20.7
2018-10-12T02:01:57.524Z,20.7
2018-10-12T02:02:47.833Z,20.7
2018-10-12T02:03:37.908Z,20.7
2018-10-12T02:04:27.965Z,20.7
2018-10-12T02:05:17.737Z,20.7
2018-10-12T02:06:08.062Z,20.7
2018-10-12T02:06:58.202Z,20.6
2018-10-12T02:07:47.645Z,20.7
2018-10-12T02:08:38.270Z,20.7
2018-10-12T02:09:28.327Z,20.6
2018-10-12T02:10:18.392Z,20.7
2018-10-12T02:11:08.452Z,20.7
2018-10-12T02:11:58.513Z,20.6
2018-10-12T02:12:48.591Z,20.6
2018-10-12T02:13:38.365Z,20.6
2018-10-12T02:14:28.722Z,20.7
2018-10-12T02:15:18.483Z,20.7
2018-10-12T02:16:08.829Z,20.7
2018-10-12T02:16:58.924Z,20.7
2018-10-12T02:17:48.944Z,20.7
2018-10-12T02:18:39.026Z,20.6
2018-10-12T02:19:29.082Z,20.7
2018-10-12T02:20:18.858Z,20.6
2018-10-12T02:21:09.204Z,20.7
2018-10-12T02:21:58.971Z,20.7
2018-10-12T02:22:49.377Z,20.7
2018-10-12T02:23:39.379Z,20.6
2018-10-12T02:24:29.446Z,20.7
2018-10-12T02:25:19.219Z,20.7
2018-10-12T02:26:09.561Z,20.7
2018-10-12T02:26:59.625Z,20.6
2018-10-12T02:27:49.411Z,20.6
2018-10-12T02:28:39.718Z,20.6
2018-10-12T02:29:29.809Z,20.6
2018-10-12T02:30:19.910Z,20.6
2018-10-12T02:31:09.933Z,20.7
2018-10-12T02:32:00.020Z,20.6
2018-10-12T02:32:50.075Z,20.6
2018-10-12T02:33:40.146Z,20.6
2018-10-12T02:34:30.178Z,20.6
2018-10-12T02:35:20.245Z,20.6
2018-10-12T02:36:10.313Z,20.6
2018-10-12T02:37:00.381Z,20.7
2018-10-12T02:37:50.436Z,20.6
2018-10-12T02:38:40.506Z,20.6
2018-10-12T02:39:30.576Z,20.6
2018-10-12T02:40:20.650Z,20.6
2018-10-12T02:41:10.692Z,20.6
2018-10-12T02:42:00.987Z,20.7
2018-10-12T02:42:50.533Z,20.6
2018-10-12T02:43:40.580Z,20.6
2018-10-12T02:44:30.945Z,20.6
2018-10-12T02:45:20.993Z,20.6
2018-10-12T02:46:11.067Z,20.6
2018-10-12T02:47:01.171Z,20.6
2018-10-12T02:47:51.187Z,20.6
2018-10-12T02:48:41.241Z,20.6
2018-10-12T02:49:31.320Z,20.6
2018-10-12T02:50:21.355Z,20.6
2018-10-12T02:51:11.418Z,20.6
2018-10-12T02:52:01.496Z,20.6
2018-10-12T02:52:51.277Z,20.6
2018-10-12T02:53:41.635Z,20.6
2018-10-12T02:54:31.669Z,20.6
2018-10-12T02:55:21.734Z,20.6
2018-10-12T02:56:11.515Z,20.6
2018-10-12T02:57:01.602Z,20.6
2018-10-12T02:57:51.924Z,20.6
2018-10-12T02:58:41.702Z,20.6
2018-10-12T02:59:32.037Z,20.6
2018-10-12T03:00:22.131Z,20.6
2018-10-12T03:01:11.927Z,20.6
2018-10-12T03:02:02.239Z,20.6
2018-10-12T03:02:52.306Z,20.7
2018-10-12T03:03:42.381Z,20.6
2018-10-12T03:04:32.412Z,20.6
2018-10-12T03:05:22.221Z,20.6
2018-10-12T03:06:12.579Z,20.7
2018-10-12T03:07:02.602Z,20.6
2018-10-12T03:07:52.671Z,20.7
2018-10-12T03:08:42.452Z,20.7
2018-10-12T03:09:32.781Z,20.6
2018-10-12T03:10:22.586Z,20.7
2018-10-12T03:11:12.900Z,20.7
2018-10-12T03:12:02.983Z,20.6
2018-10-12T03:12:53.043Z,20.6
2018-10-12T03:13:42.809Z,20.7
2018-10-12T03:14:33.170Z,20.6
2018-10-12T03:15:23.221Z,20.7
2018-10-12T03:16:13.295Z,20.6
2018-10-12T03:17:03.350Z,20.6
2018-10-12T03:17:53.398Z,20.6
2018-10-12T03:18:43.487Z,20.6
2018-10-12T03:19:33.237Z,20.6
2018-10-12T03:20:23.600Z,20.6
2018-10-12T03:21:13.646Z,20.6
2018-10-12T03:22:03.716Z,20.6
2018-10-12T03:22:53.766Z,20.6
2018-10-12T03:23:43.846Z,20.6
2018-10-12T03:24:33.621Z,20.6
2018-10-12T03:25:24.770Z,20.6
2018-10-12T03:26:14.033Z,20.6
2018-10-12T03:27:03.799Z,20.6
2018-10-12T03:27:54.152Z,20.6
2018-10-12T03:28:44.212Z,20.6
2018-10-12T03:29:34.272Z,20.6
2018-10-12T03:30:24.349Z,20.6
2018-10-12T03:31:14.407Z,20.6
2018-10-12T03:32:04.475Z,20.6
2018-10-12T03:32:54.240Z,20.6
2018-10-12T03:33:44.594Z,20.6
2018-10-12T03:34:34.634Z,20.6
2018-10-12T03:35:24.432Z,20.6
2018-10-12T03:36:14.760Z,20.6
2018-10-12T03:37:04.563Z,20.6
2018-10-12T03:37:54.883Z,20.6
2018-10-12T03:38:45.007Z,20.6
2018-10-12T03:39:35.042Z,20.6
2018-10-12T03:40:24.807Z,20.6
2018-10-12T03:41:15.145Z,20.6
2018-10-12T03:42:05.204Z,20.6
2018-10-12T03:42:55.285Z,20.6
2018-10-12T03:43:45.049Z,20.6
2018-10-12T03:44:35.106Z,20.6
2018-10-12T03:45:25.411Z,20.6
2018-10-12T03:46:15.520Z,20.6
2018-10-12T03:47:05.297Z,20.6
2018-10-12T03:47:55.340Z,20.6
2018-10-12T03:48:45.691Z,20.6
2018-10-12T03:49:35.769Z,20.6
2018-10-12T03:50:25.523Z,20.6
2018-10-12T03:51:15.871Z,20.6
2018-10-12T03:52:05.374Z,20.6
2018-10-12T03:52:56.031Z,20.6
2018-10-12T03:53:45.791Z,20.6
2018-10-12T03:54:36.128Z,20.6
2018-10-12T03:55:25.901Z,20.6
2018-10-12T03:56:15.973Z,20.6
2018-10-12T03:57:06.565Z,20.6
2018-10-12T03:57:56.084Z,20.6
2018-10-12T03:58:46.430Z,20.6
2018-10-12T03:59:36.479Z,20.6
2018-10-12T04:00:26.561Z,20.6
2018-10-12T04:01:16.618Z,20.6
2018-10-12T04:02:06.678Z,20.6
2018-10-12T04:02:57.209Z,20.5
2018-10-12T04:03:46.817Z,20.5
2018-10-12T04:04:36.872Z,20.6
2018-10-12T04:05:26.933Z,20.6
2018-10-12T04:06:16.988Z,20.6
2018-10-12T04:07:07.042Z,20.6
2018-10-12T04:07:57.110Z,20.5
2018-10-12T04:08:47.188Z,20.5
2018-10-12T04:09:37.228Z,20.5
2018-10-12T04:10:27.295Z,20.5
2018-10-12T04:11:17.383Z,20.5
2018-10-12T04:12:07.413Z,20.5
2018-10-12T04:12:57.477Z,20.5
2018-10-12T04:13:47.546Z,20.5
2018-10-12T04:14:37.619Z,20.5
2018-10-12T04:15:27.680Z,20.5
2018-10-12T04:16:17.747Z,20.5
2018-10-12T04:17:07.783Z,20.5
2018-10-12T04:17:57.860Z,20.5
2018-10-12T04:18:47.921Z,20.5
2018-10-12T04:19:37.685Z,20.5
2018-10-12T04:20:28.040Z,20.5
2018-10-12T04:21:18.113Z,20.5
2018-10-12T04:22:08.147Z,20.5
2018-10-12T04:22:58.467Z,20.5
2018-10-12T04:23:47.998Z,20.5
2018-10-12T04:24:38.372Z,20.5
2018-10-12T04:25:28.397Z,20.5
2018-10-12T04:26:18.470Z,20.4
2018-10-12T04:27:08.249Z,20.5
2018-10-12T04:27:58.837Z,20.5
2018-10-12T04:28:48.672Z,20.4
2018-10-12T04:29:38.707Z,20.5
2018-10-12T04:30:28.790Z,20.5
2018-10-12T04:31:18.852Z,20.5
2018-10-12T04:32:08.915Z,20.5
2018-10-12T04:32:58.702Z,20.5
2018-10-12T04:33:49.019Z,20.5
2018-10-12T04:34:39.082Z,20.5
2018-10-12T04:35:28.868Z,20.5
2018-10-12T04:36:19.237Z,20.5
2018-10-12T04:54:28.139Z,20.4
2018-10-12T04:55:18.195Z,20.4
2018-10-12T04:56:08.532Z,20.4
2018-10-12T04:56:58.595Z,20.4
2018-10-12T04:57:48.642Z,20.4
2018-10-12T04:58:38.698Z,20.4
2018-10-12T04:59:28.771Z,20.4
2018-10-12T05:00:18.825Z,20.4
2018-10-12T05:01:09.001Z,20.4
2018-10-12T05:01:58.663Z,20.4
2018-10-12T05:02:49.010Z,20.4
2018-10-12T05:03:38.800Z,20.4
2018-10-12T05:04:29.137Z,20.4
2018-10-12T05:05:18.902Z,20.4
2018-10-12T05:06:09.210Z,20.4
2018-10-12T05:06:59.320Z,20.4
2018-10-12T05:07:49.187Z,20.4
2018-10-12T05:08:39.447Z,20.4
2018-10-12T05:09:29.498Z,20.4
2018-10-12T05:10:19.272Z,20.4
2018-10-12T05:11:09.359Z,20.4
2018-10-12T05:11:59.684Z,20.4
2018-10-12T05:12:49.738Z,20.4
2018-10-12T05:13:39.794Z,20.4
2018-10-12T05:14:29.588Z,20.4
2018-10-12T05:15:19.925Z,20.4
2018-10-12T05:16:09.987Z,20.4
2018-10-12T05:16:59.762Z,20.4
2018-10-12T05:17:50.126Z,20.4
2018-10-12T05:18:39.899Z,20.4
2018-10-12T05:19:30.226Z,20.4
2018-10-12T05:20:20.295Z,20.4
2018-10-12T05:21:10.634Z,20.4
2018-10-12T05:22:00.619Z,20.4
2018-10-12T05:22:50.201Z,20.4
2018-10-12T05:23:40.539Z,20.4
2018-10-12T05:24:30.594Z,20.4
2018-10-12T05:25:20.922Z,20.4
2018-10-12T05:26:10.164Z,20.4
2018-10-12T05:27:00.786Z,20.4
2018-10-12T05:27:50.874Z,20.4
2018-10-12T05:28:40.898Z,20.4
2018-10-12T05:29:30.966Z,20.4
2018-10-12T05:30:21.499Z,20.4
2018-10-12T05:31:10.818Z,20.4
2018-10-12T05:32:00.874Z,20.4
2018-10-12T05:32:51.228Z,20.4
2018-10-12T05:33:41.266Z,20.4
2018-10-12T05:34:31.331Z,20.4
2018-10-12T05:35:21.113Z,20.4
2018-10-12T05:36:11.351Z,20.4
2018-10-12T05:37:01.499Z,20.4
2018-10-12T05:37:51.307Z,20.4
2018-10-12T05:38:41.658Z,20.4
2018-10-12T05:39:31.157Z,20.3
2018-10-12T05:40:21.786Z,20.4
2018-10-12T05:41:11.828Z,20.3
2018-10-12T05:42:01.898Z,20.4
2018-10-12T05:42:52.172Z,20.4
2018-10-12T05:43:41.925Z,20.4
2018-10-12T05:44:32.099Z,20.3
2018-10-12T05:45:21.862Z,20.3
2018-10-12T05:46:11.919Z,20.3
2018-10-12T05:47:02.324Z,20.3
2018-10-12T05:47:52.321Z,20.3
2018-10-12T05:48:42.216Z,20.3
2018-10-12T05:49:31.887Z,20.3
2018-10-12T05:50:22.504Z,20.3
2018-10-12T05:51:12.286Z,20.3
2018-10-12T05:52:02.643Z,20.3
2018-10-12T05:52:52.703Z,20.3
2018-10-12T05:53:42.784Z,20.3
2018-10-12T05:54:32.863Z,20.3
2018-10-12T05:55:22.590Z,20.3
2018-10-12T05:56:12.943Z,20.3
2018-10-12T05:57:02.997Z,20.3
2018-10-12T05:57:53.068Z,20.3
2018-10-12T05:58:43.132Z,20.3
2018-10-12T05:59:33.191Z,20.4
2018-10-12T06:00:23.261Z,20.4
2018-10-12T06:01:13.536Z,20.4
2018-10-12T06:02:03.106Z,20.4
2018-10-12T06:02:53.163Z,20.4
2018-10-12T06:03:43.207Z,20.4
2018-10-12T06:04:33.570Z,20.4
2018-10-12T06:05:23.343Z,20.4
2018-10-12T06:06:13.402Z,20.4
2018-10-12T06:07:03.734Z,20.4
2018-10-12T06:07:53.820Z,20.4
2018-10-12T06:08:43.887Z,20.4
2018-10-12T06:09:34.341Z,20.4
2018-10-12T06:10:24.025Z,20.4
2018-10-12T06:11:13.836Z,20.4
2018-10-12T06:12:03.872Z,20.5
2018-10-12T06:12:54.169Z,20.4
2018-10-12T06:13:44.227Z,20.5
2018-10-12T06:14:34.322Z,20.5
2018-10-12T06:15:24.403Z,20.5
2018-10-12T06:16:14.430Z,20.5
2018-10-12T06:17:04.495Z,20.5
2018-10-12T06:17:54.545Z,20.5
2018-10-12T06:18:44.618Z,20.6
2018-10-12T06:19:34.693Z,20.6
2018-10-12T06:20:24.727Z,20.6
2018-10-12T06:21:14.787Z,20.6
2018-10-12T06:22:04.847Z,20.6
2018-10-12T06:22:54.906Z,20.6
2018-10-12T06:23:44.702Z,20.6
2018-10-12T06:24:35.054Z,20.6
2018-10-12T06:25:25.117Z,20.6
2018-10-12T06:26:15.177Z,20.6
2018-10-12T06:27:05.253Z,20.6
2018-10-12T06:27:55.290Z,20.6
2018-10-12T06:28:45.346Z,20.6
2018-10-12T06:29:35.407Z,20.6
2018-10-12T06:30:25.466Z,20.6
2018-10-12T06:31:15.249Z,20.6
2018-10-12T06:32:05.584Z,20.6
2018-10-12T06:32:55.669Z,20.6
2018-10-12T06:33:45.729Z,20.6
2018-10-12T06:34:35.780Z,20.6
2018-10-12T06:35:25.549Z,20.6
2018-10-12T06:36:15.889Z,20.6
2018-10-12T06:37:05.963Z,20.6
2018-10-12T06:37:56.013Z,20.6
2018-10-12T06:38:46.081Z,20.6
2018-10-12T06:39:36.150Z,20.6
2018-10-12T06:40:26.203Z,20.6
2018-10-12T06:41:16.708Z,20.6
2018-10-12T06:42:06.342Z,20.6
2018-10-12T06:42:56.420Z,20.6
2018-10-12T06:43:46.468Z,20.6
2018-10-12T06:44:36.563Z,20.4
2018-10-12T06:45:26.295Z,20.3
2018-10-12T06:46:16.853Z,20.3
2018-10-12T06:47:06.699Z,20.3
2018-10-12T06:47:56.780Z,20.3
2018-10-12T06:48:46.830Z,20.3
2018-10-12T06:49:36.610Z,20.3
2018-10-12T06:50:26.945Z,20.3
2018-10-12T06:51:17.002Z,20.3
2018-10-12T06:52:07.086Z,20.2
2018-10-12T06:52:57.145Z,20.2
2018-10-12T06:53:47.254Z,20.2
2018-10-12T06:54:37.279Z,20.2
2018-10-12T06:55:27.333Z,20.2
2018-10-12T06:56:17.402Z,20.1
2018-10-12T06:57:07.155Z,20.1
2018-10-12T06:57:57.744Z,20.1
2018-10-12T06:58:47.292Z,20.1
2018-10-12T06:59:37.636Z,20.1
2018-10-12T07:00:27.688Z,20.1
2018-10-12T07:01:17.757Z,20.1
2018-10-12T07:02:07.807Z,20
2018-10-12T07:02:57.581Z,19.9
2018-10-12T07:03:47.659Z,19.9
2018-10-12T07:04:38.001Z,19.9
2018-10-12T07:05:28.140Z,19.9
2018-10-12T07:06:18.127Z,19.9
2018-10-12T07:07:08.190Z,19.9
2018-10-12T07:07:58.483Z,19.9
2018-10-12T07:08:48.301Z,19.9
2018-10-12T07:09:38.089Z,19.9
2018-10-12T07:10:28.426Z,19.9
2018-10-12T07:11:18.499Z,19.9
2018-10-12T07:12:08.579Z,19.9
2018-10-12T07:12:58.606Z,19.9
2018-10-12T07:13:48.675Z,19.9
2018-10-12T07:14:38.729Z,20
2018-10-12T07:15:28.788Z,20
2018-10-12T07:16:18.861Z,20
2018-10-12T07:17:08.915Z,20.1
2018-10-12T07:17:59.225Z,20.1
2018-10-12T07:18:49.049Z,20.1
2018-10-12T07:19:39.391Z,20.1
2018-10-12T07:20:28.894Z,20.1
2018-10-12T07:21:18.958Z,20.1
2018-10-12T07:22:09.293Z,20.2
2018-10-12T07:22:59.355Z,20.2
2018-10-12T07:23:49.145Z,20.2
2018-10-12T07:24:39.471Z,20.3
2018-10-12T07:25:29.790Z,20.2
2018-10-12T07:26:19.595Z,20.3
2018-10-12T07:27:09.672Z,20.3
2018-10-12T07:27:59.423Z,20.3
2018-10-12T07:28:49.794Z,20.3
2018-10-12T07:29:40.099Z,20.3
2018-10-12T07:30:29.923Z,20.4
2018-10-12T07:31:20.065Z,20.3
2018-10-12T07:32:10.030Z,20.4
2018-10-12T07:33:00.128Z,20.4
2018-10-12T07:33:50.152Z,20.4
2018-10-12T07:34:39.924Z,20.4
2018-10-12T07:35:30.280Z,20.4
2018-10-12T07:36:19.760Z,20.4
2018-10-12T07:37:10.606Z,20.4
2018-10-12T07:38:00.490Z,20.4
2018-10-12T07:38:50.526Z,20.4
2018-10-12T07:39:40.630Z,20.4
2018-10-12T07:40:30.639Z,20.5
2018-10-12T07:41:20.419Z,20.5
2018-10-12T07:42:10.814Z,20.5
2018-10-12T07:43:00.820Z,20.5
2018-10-12T07:43:50.882Z,20.6
2018-10-12T07:44:40.946Z,20.6
2018-10-12T07:45:31.611Z,20.6
2018-10-12T07:46:21.069Z,20.6
2018-10-12T07:47:11.212Z,20.6
2018-10-12T07:48:01.361Z,20.6
2018-10-12T07:48:51.261Z,20.6
2018-10-12T07:49:41.059Z,20.6
2018-10-12T07:50:31.127Z,20.6
2018-10-12T07:51:21.164Z,20.6
2018-10-12T07:52:11.523Z,20.7
2018-10-12T07:53:01.622Z,20.7
2018-10-12T07:53:51.349Z,20.7
2018-10-12T07:54:41.127Z,20.7
2018-10-12T07:55:31.769Z,20.8
2018-10-12T07:56:21.811Z,20.7
2018-10-12T07:57:11.883Z,20.8
2018-10-12T07:58:01.938Z,20.8
2018-10-12T07:58:52.022Z,20.8
2018-10-12T07:59:42.063Z,20.8
2018-10-12T08:00:32.308Z,20.8
2018-10-12T08:01:22.219Z,20.8
2018-10-12T08:02:11.956Z,20.8
2018-10-12T08:03:02.319Z,20.8
2018-10-12T08:03:51.800Z,20.8
2018-10-12T08:04:42.451Z,20.8
2018-10-12T08:05:32.495Z,20.8
2018-10-12T08:06:22.528Z,20.9
2018-10-12T08:07:12.618Z,20.9
2018-10-12T08:08:02.693Z,20.9
2018-10-12T08:08:52.734Z,20.9
2018-10-12T08:09:43.131Z,20.9
2018-10-12T08:10:32.876Z,20.9
2018-10-12T08:11:22.992Z,20.9
2018-10-12T08:12:12.710Z,20.9
2018-10-12T08:13:03.058Z,20.9
2018-10-12T08:13:53.436Z,21
2018-10-12T08:14:43.188Z,21
2018-10-12T08:15:33.273Z,20.9
2018-10-12T08:16:23.304Z,21
2018-10-12T08:17:13.360Z,21
2018-10-12T08:18:03.430Z,21
2018-10-12T08:18:53.475Z,21
2018-10-12T08:19:43.277Z,21
2018-10-12T08:20:34.001Z,21
2018-10-12T08:21:23.402Z,21
2018-10-12T08:22:13.734Z,21
2018-10-12T08:23:03.798Z,21.1
2018-10-12T08:23:53.896Z,21.1
2018-10-12T08:24:43.939Z,21.1
2018-10-12T08:25:34.104Z,21.1
2018-10-12T08:26:24.072Z,21.1
2018-10-12T08:27:14.104Z,21.1
2018-10-12T08:28:04.177Z,21.1
2018-10-12T08:28:53.959Z,21.1
2018-10-12T08:35:34.978Z,21.2
2018-10-12T08:36:24.647Z,21.2
2018-10-12T08:37:14.854Z,21.2
2018-10-12T08:38:04.906Z,21.2
2018-10-12T08:38:54.976Z,21.2
2018-10-12T08:39:45.031Z,21.2
2018-10-12T08:40:35.177Z,21.2
2018-10-12T08:41:25.179Z,21.2
2018-10-12T08:42:15.213Z,21.2
2018-10-12T08:43:05.013Z,21.2
2018-10-12T08:43:55.072Z,21.2
2018-10-12T08:44:45.452Z,21.2
2018-10-12T08:45:35.468Z,21.2
2018-10-12T08:46:25.531Z,21.2
2018-10-12T08:47:15.846Z,21.3
2018-10-12T08:48:05.661Z,21.2
2018-10-12T08:48:55.718Z,21.3
2018-10-12T08:49:45.800Z,21.3
2018-10-12T08:50:35.565Z,21.2
2018-10-12T08:51:25.924Z,21.2
2018-10-12T08:52:15.694Z,21.2
2018-10-12T09:08:49.285Z,21.3
2018-10-12T09:09:39.172Z,21.3
2018-10-12T09:10:28.867Z,21.3
2018-10-12T09:11:19.207Z,21.3
2018-10-12T09:12:09.262Z,21.3
2018-10-12T09:12:59.047Z,21.3
2018-10-12T09:13:49.639Z,21.3
2018-10-12T09:14:39.439Z,21.3
2018-10-12T09:15:29.221Z,21.2
2018-10-12T09:16:19.821Z,21.2
2018-10-12T09:17:09.345Z,21.2
2018-10-12T09:17:59.704Z,21.2
2018-10-12T09:18:50.038Z,21.2
2018-10-12T09:19:39.527Z,21.2
2018-10-12T09:20:30.446Z,21.2
2018-10-12T09:21:19.936Z,21.2
2018-10-12T09:22:09.991Z,21.2
2018-10-12T09:23:00.063Z,21.2
2018-10-12T09:23:50.130Z,21.2
2018-10-12T09:24:40.178Z,21.2
2018-10-12T09:27:10.455Z,21.2
2018-10-12T09:37:11.426Z,21.1
2018-10-12T09:38:01.418Z,21.1
2018-10-12T09:41:21.420Z,21.1
2018-10-12T10:09:43.528Z,21.1
2018-10-12T10:18:53.920Z,21.1
2018-10-12T10:19:44.283Z,21.1
2018-10-12T10:20:34.342Z,21.1
2018-10-12T10:26:24.758Z,21.1
2018-10-12T10:27:14.532Z,21.1
2018-10-12T10:28:04.874Z,21.1
2018-10-12T10:33:05.260Z,21.1
2018-10-12T10:37:15.554Z,21.1
2018-10-12T10:38:05.615Z,21.1
2018-10-12T10:38:55.798Z,21.1
2018-10-12T10:40:35.802Z,21.1
2018-10-12T10:41:25.864Z,21.1
2018-10-12T10:42:15.937Z,21.1
2018-10-12T10:43:06.001Z,21.1
2018-10-12T10:44:45.823Z,21.1
2018-10-12T10:51:26.611Z,21.1
2018-10-12T10:57:16.713Z,21.1
2018-10-12T10:58:07.098Z,21.1
2018-10-12T11:03:07.535Z,21.1
2018-10-12T11:17:18.527Z,21.2
2018-10-12T11:19:48.710Z,21.2
2018-10-12T11:21:28.819Z,21.2
2018-10-12T11:22:18.904Z,21.2
2018-10-12T11:23:08.666Z,21.2
2018-10-12T11:23:59.021Z,21.2
2018-10-12T11:24:48.801Z,21.2
2018-10-12T11:25:39.122Z,21.2
2018-10-12T11:26:29.511Z,21.2
2018-10-12T11:27:19.272Z,21.2
2018-10-12T11:28:09.320Z,21.2
2018-10-12T11:28:59.339Z,21.2
2018-10-12T11:29:49.451Z,21.2
2018-10-12T11:30:39.501Z,21.2
2018-10-12T11:31:29.572Z,21.2
2018-10-12T11:32:19.636Z,21.2
2018-10-12T11:33:09.816Z,21.2
2018-10-12T11:33:59.749Z,21.2
2018-10-12T11:34:49.812Z,21.2
2018-10-12T11:35:39.881Z,21.2
2018-10-12T11:36:29.931Z,21.2
2018-10-12T11:37:19.999Z,21.2
2018-10-12T11:38:10.064Z,21.2
2018-10-12T11:39:00.133Z,21.2
2018-10-12T11:39:50.439Z,21.2
2018-10-12T11:40:40.240Z,21.2
2018-10-12T11:41:30.301Z,21.2
2018-10-12T11:42:20.385Z,21.2
2018-10-12T11:43:10.439Z,21.3
2018-10-12T11:44:00.503Z,21.3
2018-10-12T11:44:50.801Z,21.2
2018-10-12T11:45:40.337Z,21.2
2018-10-12T11:46:30.675Z,21.3
2018-10-12T11:47:20.740Z,21.2
2018-10-12T11:48:10.847Z,21.3
2018-10-12T11:49:00.863Z,21.3
2018-10-12T11:49:50.928Z,21.2
2018-10-12T11:50:40.993Z,21.3
2018-10-12T11:51:31.055Z,21.3
2018-10-12T11:52:21.374Z,21.3
2018-10-12T11:53:10.887Z,21.3
2018-10-12T11:54:01.233Z,21.3
2018-10-12T11:54:51.301Z,21.3
2018-10-12T11:55:41.370Z,21.3
2018-10-12T11:56:31.432Z,21.3
2018-10-12T11:57:20.916Z,21.3
2018-10-12T11:58:11.544Z,21.3
2018-10-12T11:59:01.620Z,21.3
2018-10-12T11:59:51.660Z,21.3
2018-10-12T12:00:41.444Z,21.3
2018-10-12T12:01:31.794Z,21.3
2018-10-12T12:02:22.178Z,21.3
2018-10-12T12:03:11.921Z,21.3
2018-10-12T12:04:02.267Z,21.3
2018-10-12T12:04:52.039Z,21.3
2018-10-12T12:05:42.119Z,21.3
2018-10-12T12:06:32.162Z,21.3
2018-10-12T12:07:22.155Z,21.3
2018-10-12T12:08:12.289Z,21.3
2018-10-12T12:09:02.066Z,21.3
2018-10-12T12:09:52.406Z,21.3
2018-10-12T12:10:42.176Z,21.3
2018-10-12T12:11:32.537Z,21.3
2018-10-12T12:12:22.599Z,21.3
2018-10-12T12:13:12.386Z,21.3
2018-10-12T12:14:03.215Z,21.3
2018-10-12T12:14:53.030Z,21.3
2018-10-12T12:15:42.861Z,21.3
2018-10-12T12:16:32.919Z,21.3
2018-10-12T12:17:22.684Z,21.3
2018-10-12T12:18:13.042Z,21.3
2018-10-12T12:19:03.099Z,21.3
2018-10-12T12:19:53.154Z,21.3
2018-10-12T12:20:42.936Z,21.3
2018-10-12T12:21:33.291Z,21.3
2018-10-12T12:22:23.351Z,21.3
2018-10-12T12:23:13.399Z,21.3
2018-10-12T12:24:03.459Z,21.3
2018-10-12T12:24:53.531Z,21.3
2018-10-12T12:25:43.579Z,21.3
2018-10-12T12:26:33.653Z,21.3
2018-10-12T12:27:23.713Z,21.3
2018-10-12T12:28:13.496Z,21.3
2018-10-12T12:29:03.831Z,21.3
2018-10-12T12:29:54.154Z,21.3
2018-10-12T12:30:43.957Z,21.3
2018-10-12T12:31:34.023Z,21.3
2018-10-12T12:32:24.078Z,21.3
2018-10-12T12:33:14.156Z,21.3
2018-10-12T12:34:04.211Z,21.3
2018-10-12T12:34:54.767Z,21.3
2018-10-12T12:35:45.567Z,21.3
2018-10-12T12:36:34.401Z,21.3
2018-10-12T12:37:24.468Z,21.3
2018-10-12T12:38:14.523Z,21.3
2018-10-12T12:39:04.583Z,21.3
2018-10-12T12:39:54.886Z,21.3
2018-10-12T12:40:44.703Z,21.3
2018-10-12T12:41:34.839Z,21.3
2018-10-12T12:42:24.825Z,21.3
2018-10-12T12:43:14.897Z,21.3
2018-10-12T12:44:04.955Z,21.3
2018-10-12T12:44:55.021Z,21.3
2018-10-12T12:45:45.088Z,21.3
2018-10-12T12:46:35.154Z,21.3
2018-10-12T12:47:25.666Z,21.3
2018-10-12T12:48:15.506Z,21.3
2018-10-12T12:49:06.998Z,21.3
2018-10-12T12:49:55.412Z,21.3
2018-10-12T12:50:45.701Z,21.3
2018-10-12T12:51:35.507Z,21.3
2018-10-12T12:52:25.576Z,21.3
2018-10-12T12:53:15.647Z,21.3
2018-10-12T12:54:05.421Z,21.3
2018-10-12T12:54:55.485Z,21.3
2018-10-12T12:55:46.165Z,21.3
2018-10-12T12:56:35.886Z,21.3
2018-10-12T12:57:25.959Z,21.3
2018-10-12T12:58:16.162Z,21.3
2018-10-12T12:59:05.784Z,21.3
2018-10-12T12:59:56.139Z,21.3
2018-10-12T13:00:46.569Z,21.3
2018-10-12T13:01:36.272Z,21.3
2018-10-12T13:02:26.324Z,21.3
2018-10-12T13:03:16.384Z,21.3
2018-10-12T13:04:06.449Z,21.3
2018-10-12T13:04:56.507Z,21.3
2018-10-12T13:05:46.309Z,21.3
2018-10-12T13:06:36.562Z,21.3
2018-10-12T13:07:26.719Z,21.3
2018-10-12T13:08:16.750Z,21.3
2018-10-12T13:09:06.820Z,21.3
2018-10-12T13:09:56.595Z,21.3
2018-10-12T13:10:46.933Z,21.2
2018-10-12T13:11:37.011Z,21.3
2018-10-12T13:12:27.071Z,21.2
2018-10-12T13:13:17.135Z,21.2
2018-10-12T13:14:07.199Z,21.2
2018-10-12T13:14:57.253Z,21.3
2018-10-12T13:15:47.320Z,21.2
2018-10-12T13:16:37.372Z,21.2
2018-10-12T13:17:27.443Z,21.3
2018-10-12T13:18:17.510Z,21.3
2018-10-12T13:19:07.565Z,21.2
2018-10-12T13:19:57.627Z,21.3
2018-10-12T13:20:47.678Z,21.2
2018-10-12T13:21:37.755Z,21.3
2018-10-12T13:22:27.809Z,21.2
2018-10-12T13:23:17.868Z,21.2
2018-10-12T13:24:07.647Z,21.2
2018-10-12T13:24:57.998Z,21.2
2018-10-12T13:25:48.293Z,21.2
2018-10-12T13:26:38.123Z,21.2
2018-10-12T13:27:28.186Z,21.2
2018-10-12T13:28:18.247Z,21.2
2018-10-12T13:29:08.308Z,21.2
2018-10-12T13:29:58.102Z,21.2
2018-10-12T13:30:48.438Z,21.2
2018-10-12T13:31:38.513Z,21.2
2018-10-12T13:32:28.520Z,21.2
2018-10-12T13:33:18.627Z,21.3
2018-10-12T13:34:08.670Z,21.2
2018-10-12T13:34:58.745Z,21.2
2018-10-12T13:35:48.828Z,21.2
2018-10-12T13:36:38.869Z,21.2
2018-10-12T13:37:29.033Z,21.2